Time,TemperatureF,DewpointF,PressureIn,WindDirection,WindDirectionDegrees,WindSpeedMPH,WindSpeedGustMPH,Humidity,HourlyPrecipIn,Conditions,Clouds,dailyrainin,SoftwareType,DateUTC
2013-09-14 00:22:00,47.0,46.0,-100.00,North,355,0.0,0.0,99,-99.99,,,-99.99,,2013-09-14 05:22:00,
2013-09-14 00:34:00,47.0,46.0,-100.00,North,355,0.0,0.0,99,-99.99,,,-99.99,,2013-09-14 05:34:00,
2013-09-14 00:43:00,47.0,46.0,-100.00,North,355,0.0,0.0,99,-99.99,,,-99.99,,2013-09-14 05:43:00,
2013-09-14 00:52:00,47.0,46.0,-100.00,North,355,0.0,0.0,99,-99.99,,,-99.99,,2013-09-14 05:52:00,
2013-09-14 01:21:00,45.0,45.0,-100.00,North,355,0.0,0.0,99,-99.99,,,-99.99,,2013-09-14 06:21:00,
2013-09-14 01:32:00,45.0,45.0,-100.00,North,355,0.0,0.0,99,-99.99,,,-99.99,,2013-09-14 06:32:00,
2013-09-14 01:42:00,45.0,45.0,-100.00,North,355,0.0,0.0,99,-99.99,,,-99.99,,2013-09-14 06:42:00,
2013-09-14 01:52:00,45.0,45.0,-100.00,North,355,0.0,0.0,99,-99.99,,,-99.99,,2013-09-14 06:52:00,
2013-09-14 02:22:00,45.0,45.0,-100.00,North,355,0.0,0.0,99,-99.99,,,-99.99,,2013-09-14 07:22:00,
2013-09-14 02:34:00,45.0,45.0,-100.00,North,355,0.0,0.0,99,-99.99,,,-99.99,,2013-09-14 07:34:00,
2013-09-14 02:42:00,45.0,45.0,-100.00,North,355,0.0,0.0,99,-99.99,,,-99.99,,2013-09-14 07:42:00,
2013-09-14 02:52:00,45.0,45.0,-100.00,North,355,0.0,0.0,99,-99.99,,,-99.99,,2013-09-14 07:52:00,
2013-09-14 03:22:00,43.0,42.0,-100.00,North,355,0.0,0.0,99,-99.99,,,-99.99,,2013-09-14 08:22:00,
2013-09-14 03:32:00,43.0,42.0,-100.00,North,355,0.0,0.0,99,-99.99,,,-99.99,,2013-09-14 08:32:00,
2013-09-14 03:42:00,43.0,42.0,-100.00,North,355,0.0,0.0,99,-99.99,,,-99.99,,2013-09-14 08:42:00,
2013-09-14 03:52:00,43.0,42.0,-100.00,North,355,0.0,0.0,99,-99.99,,,-99.99,,2013-09-14 08:52:00,
2013-09-14 04:22:00,42.0,41.0,-100.00,North,355,0.0,0.0,99,-99.99,,,-99.99,,2013-09-14 09:22:00,
2013-09-14 04:33:00,42.0,41.0,-100.00,North,355,0.0,0.0,99,-99.99,,,-99.99,,2013-09-14 09:33:00,
2013-09-14 04:43:00,42.0,41.0,-100.00,North,355,0.0,0.0,99,-99.99,,,-99.99,,2013-09-14 09:43:00,
2013-09-14 04:53:00,42.0,41.0,-100.00,North,355,0.0,0.0,99,-99.99,,,-99.99,,2013-09-14 09:53:00,
2013-09-14 05:23:00,41.0,41.0,-100.00,North,355,0.0,0.0,99,-99.99,,,-99.99,,2013-09-14 10:23:00,
2013-09-14 05:32:00,41.0,41.0,-100.00,North,355,0.0,0.0,99,-99.99,,,-99.99,,2013-09-14 10:32:00,
2013-09-14 05:42:00,41.0,41.0,-100.00,North,355,0.0,0.0,99,-99.99,,,-99.99,,2013-09-14 10:42:00,
2013-09-14 05:52:00,41.0,41.0,-100.00,North,355,0.0,0.0,99,-99.99,,,-99.99,,2013-09-14 10:52:00,
2013-09-14 06:22:00,41.0,40.0,-100.00,North,355,0.0,0.0,99,-99.99,,,-99.99,,2013-09-14 11:22:00,
2013-09-14 06:33:00,41.0,40.0,-100.00,North,355,0.0,0.0,99,-99.99,,,-99.99,,2013-09-14 11:33:00,
2013-09-14 06:42:00,41.0,40.0,-100.00,North,355,0.0,0.0,99,-99.99,,,-99.99,,2013-09-14 11:42:00,
2013-09-14 06:52:00,41.0,40.0,-100.00,North,355,0.0,0.0,99,-99.99,,,-99.99,,2013-09-14 11:52:00,
2013-09-14 07:22:00,41.0,41.0,-100.00,North,355,0.0,0.0,99,-99.99,,,-99.99,,2013-09-14 12:22:00,
2013-09-14 07:32:00,41.0,41.0,-100.00,North,355,0.0,0.0,99,-99.99,,,-99.99,,2013-09-14 12:32:00,
2013-09-14 07:42:00,41.0,41.0,-100.00,North,355,0.0,0.0,99,-99.99,,,-99.99,,2013-09-14 12:42:00,
2013-09-14 07:52:00,41.0,41.0,-100.00,North,355,0.0,0.0,99,-99.99,,,-99.99,,2013-09-14 12:52:00,
2013-09-14 08:21:00,49.0,49.0,-100.00,North,355,0.0,0.0,99,-99.99,,,-99.99,,2013-09-14 13:21:00,
2013-09-14 08:32:00,49.0,49.0,-100.00,North,355,0.0,0.0,99,-99.99,,,-99.99,,2013-09-14 13:32:00,
2013-09-14 08:42:00,49.0,49.0,-100.00,North,355,0.0,0.0,99,-99.99,,,-99.99,,2013-09-14 13:42:00,
2013-09-14 08:52:00,49.0,49.0,-100.00,North,355,0.0,0.0,99,-99.99,,,-99.99,,2013-09-14 13:52:00,
2013-09-14 11:23:00,65.0,52.0,-100.00,North,355,0.0,0.0,64,-99.99,,,-99.99,,2013-09-14 16:23:00,
2013-09-14 11:33:00,65.0,52.0,-100.00,North,355,0.0,0.0,64,-99.99,,,-99.99,,2013-09-14 16:33:00,
2013-09-14 11:44:00,65.0,52.0,-100.00,North,355,0.0,0.0,64,-99.99,,,-99.99,,2013-09-14 16:44:00,
2013-09-14 11:54:00,65.0,52.0,-100.00,North,355,0.0,0.0,64,-99.99,,,-99.99,,2013-09-14 16:54:00,
2013-09-14 12:23:00,66.0,51.0,-100.00,North,355,0.0,0.0,57,-99.99,,,-99.99,,2013-09-14 17:23:00,
2013-09-14 12:33:00,66.0,51.0,-100.00,North,355,0.0,0.0,57,-99.99,,,-99.99,,2013-09-14 17:33:00,
2013-09-14 12:43:00,66.0,51.0,-100.00,North,355,0.0,0.0,57,-99.99,,,-99.99,,2013-09-14 17:43:00,
2013-09-14 13:22:00,68.0,48.0,-100.00,North,355,0.0,0.0,49,-99.99,,,-99.99,,2013-09-14 18:22:00,
2013-09-14 13:32:00,68.0,48.0,-100.00,North,355,0.0,0.0,49,-99.99,,,-99.99,,2013-09-14 18:32:00,
2013-09-14 13:43:00,68.0,48.0,-100.00,North,355,0.0,0.0,49,-99.99,,,-99.99,,2013-09-14 18:43:00,
2013-09-14 13:52:00,68.0,48.0,-100.00,North,355,0.0,0.0,49,-99.99,,,-99.99,,2013-09-14 18:52:00,
2013-09-14 15:22:00,73.0,49.0,-100.00,North,355,0.0,0.0,43,-99.99,,,-99.99,,2013-09-14 20:22:00,
2013-09-14 15:32:00,73.0,49.0,-100.00,North,355,0.0,0.0,43,-99.99,,,-99.99,,2013-09-14 20:32:00,
2013-09-14 16:22:00,73.0,48.0,-100.00,North,355,0.0,0.0,42,-99.99,,,-99.99,,2013-09-14 21:22:00,
2013-09-14 16:33:00,73.0,48.0,-100.00,North,355,0.0,0.0,42,-99.99,,,-99.99,,2013-09-14 21:33:00,
2013-09-14 16:44:00,73.0,48.0,-100.00,North,355,0.0,0.0,42,-99.99,,,-99.99,,2013-09-14 21:44:00,
2013-09-14 16:54:00,73.0,48.0,-100.00,North,355,0.0,0.0,42,-99.99,,,-99.99,,2013-09-14 21:54:00,
2013-09-14 17:24:00,72.0,49.0,-100.00,North,355,0.0,0.0,44,-99.99,,,-99.99,,2013-09-14 22:24:00,
2013-09-14 17:34:00,72.0,49.0,-100.00,North,355,0.0,0.0,44,-99.99,,,-99.99,,2013-09-14 22:34:00,
2013-09-14 17:40:00,72.0,48.0,-100.00,North,355,0.0,0.0,44,-99.99,,,-99.99,,2013-09-14 22:40:00,
2013-09-14 17:42:00,72.0,49.0,-100.00,North,355,0.0,0.0,44,-99.99,,,-99.99,,2013-09-14 22:42:00,
2013-09-14 17:53:00,72.0,49.0,-100.00,North,355,0.0,0.0,44,-99.99,,,-99.99,,2013-09-14 22:53:00,
2013-09-14 18:23:00,72.0,48.0,-100.00,North,355,0.0,0.0,44,-99.99,,,-99.99,,2013-09-14 23:23:00,
2013-09-14 18:34:00,72.0,48.0,-100.00,North,355,0.0,0.0,44,-99.99,,,-99.99,,2013-09-14 23:34:00,
2013-09-14 19:22:00,65.0,48.0,-100.00,North,355,0.0,0.0,54,-99.99,,,-99.99,,2013-09-15 00:22:00,
2013-09-14 19:32:00,65.0,48.0,-100.00,North,355,0.0,0.0,54,-99.99,,,-99.99,,2013-09-15 00:32:00,
2013-09-14 19:42:00,65.0,48.0,-100.00,North,355,0.0,0.0,54,-99.99,,,-99.99,,2013-09-15 00:42:00,
2013-09-14 19:53:00,65.0,48.0,-100.00,North,355,0.0,0.0,54,-99.99,,,-99.99,,2013-09-15 00:53:00,
2013-09-14 20:22:00,60.0,51.0,-100.00,North,355,0.0,0.0,71,-99.99,,,-99.99,,2013-09-15 01:22:00,
2013-09-14 20:32:00,60.0,51.0,-100.00,North,355,0.0,0.0,71,-99.99,,,-99.99,,2013-09-15 01:32:00,
2013-09-14 20:42:00,60.0,51.0,-100.00,North,355,0.0,0.0,71,-99.99,,,-99.99,,2013-09-15 01:42:00,
2013-09-14 20:52:00,60.0,51.0,-100.00,North,355,0.0,0.0,71,-99.99,,,-99.99,,2013-09-15 01:52:00,
2013-09-14 21:22:00,60.0,50.0,-100.00,North,355,0.0,0.0,70,-99.99,,,-99.99,,2013-09-15 02:22:00,
2013-09-14 21:32:00,60.0,50.0,-100.00,North,355,0.0,0.0,70,-99.99,,,-99.99,,2013-09-15 02:32:00,
2013-09-14 21:42:00,60.0,50.0,-100.00,North,355,0.0,0.0,70,-99.99,,,-99.99,,2013-09-15 02:42:00,
2013-09-14 21:52:00,60.0,50.0,-100.00,North,355,0.0,0.0,70,-99.99,,,-99.99,,2013-09-15 02:52:00,
2013-09-14 23:24:00,60.0,49.0,-100.00,North,355,0.0,0.0,68,-99.99,,,-99.99,,2013-09-15 04:24:00,
2013-09-14 23:34:00,60.0,49.0,-100.00,North,355,0.0,0.0,68,-99.99,,,-99.99,,2013-09-15 04:34:00,
2013-09-14 23:43:00,60.0,49.0,-100.00,North,355,0.0,0.0,68,-99.99,,,-99.99,,2013-09-15 04:43:00,
2013-09-14 23:54:00,60.0,49.0,-100.00,North,355,0.0,0.0,68,-99.99,,,-99.99,,2013-09-15 04:54:00,